sensor_id;sensor_type;location;lat;lon;timestamp;P1;durP1;ratioP1;P2;durP2;ratioP2
3627;SDS011;1830;49.000;12.074;2023-03-01T00:00:07;41.50;;;24.87;;
3627;SDS011;1830;49.000;12.074;2023-03-01T00:02:35;40.00;;;24.03;;
3627;SDS011;1830;49.000;12.074;2023-03-01T00:05:02;42.20;;;24.03;;
3627;SDS011;1830;49.000;12.074;2023-03-01T00:07:30;41.63;;;25.50;;
3627;SDS011;1830;49.000;12.074;2023-03-01T00:09:57;36.63;;;22.87;;
3627;SDS011;1830;49.000;12.074;2023-03-01T00:12:24;39.10;;;23.87;;
3627;SDS011;1830;49.000;12.074;2023-03-01T00:14:51;42.90;;;24.70;;
3627;SDS011;1830;49.000;12.074;2023-03-01T00:17:17;40.00;;;24.27;;
3627;SDS011;1830;49.000;12.074;2023-03-01T00:19:44;39.63;;;23.53;;
3627;SDS011;1830;49.000;12.074;2023-03-01T00:22:11;38.90;;;23.47;;
3627;SDS011;1830;49.000;12.074;2023-03-01T00:24:39;40.27;;;23.27;;
3627;SDS011;1830;49.000;12.074;2023-03-01T00:27:06;44.33;;;24.30;;
3627;SDS011;1830;49.000;12.074;2023-03-01T00:29:32;40.63;;;23.83;;
3627;SDS011;1830;49.000;12.074;2023-03-01T00:31:59;47.10;;;25.40;;
3627;SDS011;1830;49.000;12.074;2023-03-01T00:34:26;42.53;;;24.60;;
3627;SDS011;1830;49.000;12.074;2023-03-01T00:36:53;40.60;;;24.00;;
3627;SDS011;1830;49.000;12.074;2023-03-01T00:39:20;46.73;;;26.37;;
3627;SDS011;1830;49.000;12.074;2023-03-01T00:41:48;39.57;;;24.77;;
3627;SDS011;1830;49.000;12.074;2023-03-01T00:44:14;44.27;;;24.70;;
3627;SDS011;1830;49.000;12.074;2023-03-01T00:46:42;45.27;;;26.30;;
3627;SDS011;1830;49.000;12.074;2023-03-01T00:49:09;41.83;;;24.33;;
3627;SDS011;1830;49.000;12.074;2023-03-01T00:51:35;42.77;;;26.30;;
3627;SDS011;1830;49.000;12.074;2023-03-01T00:54:04;45.37;;;25.87;;
3627;SDS011;1830;49.000;12.074;2023-03-01T00:56:31;43.33;;;25.60;;
3627;SDS011;1830;49.000;12.074;2023-03-01T00:58:59;53.93;;;25.67;;
3627;SDS011;1830;49.000;12.074;2023-03-01T01:01:28;39.83;;;24.70;;
3627;SDS011;1830;49.000;12.074;2023-03-01T01:03:57;45.37;;;25.17;;
3627;SDS011;1830;49.000;12.074;2023-03-01T01:06:26;44.17;;;25.00;;
3627;SDS011;1830;49.000;12.074;2023-03-01T01:08:54;46.10;;;25.60;;
3627;SDS011;1830;49.000;12.074;2023-03-01T01:11:21;46.07;;;26.10;;
3627;SDS011;1830;49.000;12.074;2023-03-01T01:13:49;51.23;;;26.50;;
3627;SDS011;1830;49.000;12.074;2023-03-01T01:16:17;43.57;;;25.33;;
3627;SDS011;1830;49.000;12.074;2023-03-01T01:18:45;43.87;;;25.33;;
3627;SDS011;1830;49.000;12.074;2023-03-01T01:21:12;46.77;;;25.57;;
3627;SDS011;1830;49.000;12.074;2023-03-01T01:23:41;50.30;;;27.03;;
3627;SDS011;1830;49.000;12.074;2023-03-01T01:26:09;44.50;;;24.77;;
3627;SDS011;1830;49.000;12.074;2023-03-01T01:28:38;45.90;;;25.27;;
3627;SDS011;1830;49.000;12.074;2023-03-01T01:31:05;47.90;;;25.63;;
3627;SDS011;1830;49.000;12.074;2023-03-01T01:33:34;47.90;;;25.07;;
3627;SDS011;1830;49.000;12.074;2023-03-01T01:36:02;41.73;;;24.57;;
3627;SDS011;1830;49.000;12.074;2023-03-01T01:38:29;43.90;;;25.80;;
3627;SDS011;1830;49.000;12.074;2023-03-01T01:40:56;45.10;;;25.77;;
3627;SDS011;1830;49.000;12.074;2023-03-01T01:43:27;52.93;;;26.23;;
3627;SDS011;1830;49.000;12.074;2023-03-01T01:46:01;45.33;;;25.10;;
3627;SDS011;1830;49.000;12.074;2023-03-01T01:48:34;52.70;;;27.70;;
3627;SDS011;1830;49.000;12.074;2023-03-01T01:51:06;46.97;;;26.67;;
3627;SDS011;1830;49.000;12.074;2023-03-01T01:53:36;46.50;;;27.07;;
3627;SDS011;1830;49.000;12.074;2023-03-01T01:56:05;46.50;;;25.97;;
3627;SDS011;1830;49.000;12.074;2023-03-01T01:58:33;43.77;;;24.63;;
3627;SDS011;1830;49.000;12.074;2023-03-01T02:01:01;41.70;;;23.87;;
3627;SDS011;1830;49.000;12.074;2023-03-01T02:03:30;50.13;;;26.90;;
3627;SDS011;1830;49.000;12.074;2023-03-01T02:06:05;39.40;;;24.40;;
3627;SDS011;1830;49.000;12.074;2023-03-01T02:08:38;48.37;;;25.20;;
3627;SDS011;1830;49.000;12.074;2023-03-01T02:11:08;47.13;;;27.20;;
3627;SDS011;1830;49.000;12.074;2023-03-01T02:13:36;43.47;;;25.77;;
3627;SDS011;1830;49.000;12.074;2023-03-01T02:16:04;49.90;;;26.57;;
3627;SDS011;1830;49.000;12.074;2023-03-01T02:18:31;43.70;;;24.83;;
3627;SDS011;1830;49.000;12.074;2023-03-01T02:21:01;43.47;;;25.20;;
3627;SDS011;1830;49.000;12.074;2023-03-01T02:23:41;43.57;;;25.63;;
3627;SDS011;1830;49.000;12.074;2023-03-01T02:26:11;41.77;;;24.37;;
3627;SDS011;1830;49.000;12.074;2023-03-01T02:28:45;43.93;;;25.00;;
3627;SDS011;1830;49.000;12.074;2023-03-01T02:31:14;44.17;;;25.73;;
3627;SDS011;1830;49.000;12.074;2023-03-01T02:34:01;45.60;;;25.10;;
3627;SDS011;1830;49.000;12.074;2023-03-01T02:36:30;43.70;;;25.97;;
3627;SDS011;1830;49.000;12.074;2023-03-01T02:39:01;44.50;;;25.80;;
3627;SDS011;1830;49.000;12.074;2023-03-01T02:41:31;43.03;;;24.57;;
3627;SDS011;1830;49.000;12.074;2023-03-01T02:44:04;40.17;;;23.53;;
3627;SDS011;1830;49.000;12.074;2023-03-01T02:46:32;44.23;;;25.90;;
3627;SDS011;1830;49.000;12.074;2023-03-01T02:48:59;45.90;;;24.97;;
3627;SDS011;1830;49.000;12.074;2023-03-01T02:51:42;49.70;;;24.90;;
3627;SDS011;1830;49.000;12.074;2023-03-01T02:54:16;48.27;;;24.67;;
3627;SDS011;1830;49.000;12.074;2023-03-01T02:56:48;43.23;;;24.50;;
3627;SDS011;1830;49.000;12.074;2023-03-01T02:59:16;44.90;;;24.40;;
3627;SDS011;1830;49.000;12.074;2023-03-01T03:01:46;47.27;;;25.20;;
3627;SDS011;1830;49.000;12.074;2023-03-01T03:04:14;50.97;;;24.37;;
3627;SDS011;1830;49.000;12.074;2023-03-01T03:06:43;48.83;;;25.77;;
3627;SDS011;1830;49.000;12.074;2023-03-01T03:09:10;43.67;;;24.23;;
3627;SDS011;1830;49.000;12.074;2023-03-01T03:11:37;40.40;;;23.97;;
3627;SDS011;1830;49.000;12.074;2023-03-01T03:14:04;45.70;;;26.20;;
3627;SDS011;1830;49.000;12.074;2023-03-01T03:16:38;42.30;;;24.53;;
3627;SDS011;1830;49.000;12.074;2023-03-01T03:19:06;46.70;;;26.80;;
3627;SDS011;1830;49.000;12.074;2023-03-01T03:21:33;42.40;;;25.10;;
3627;SDS011;1830;49.000;12.074;2023-03-01T03:24:00;46.67;;;25.37;;
3627;SDS011;1830;49.000;12.074;2023-03-01T03:26:27;46.87;;;24.90;;
3627;SDS011;1830;49.000;12.074;2023-03-01T03:28:54;46.20;;;24.73;;
3627;SDS011;1830;49.000;12.074;2023-03-01T03:31:22;47.70;;;24.67;;
3627;SDS011;1830;49.000;12.074;2023-03-01T03:33:50;42.27;;;23.63;;
3627;SDS011;1830;49.000;12.074;2023-03-01T03:36:17;43.50;;;24.23;;
3627;SDS011;1830;49.000;12.074;2023-03-01T03:38:45;42.67;;;24.73;;
3627;SDS011;1830;49.000;12.074;2023-03-01T03:41:13;42.97;;;24.70;;
3627;SDS011;1830;49.000;12.074;2023-03-01T03:43:41;46.70;;;25.63;;
3627;SDS011;1830;49.000;12.074;2023-03-01T03:46:08;49.50;;;24.37;;
3627;SDS011;1830;49.000;12.074;2023-03-01T03:48:37;43.30;;;24.93;;
3627;SDS011;1830;49.000;12.074;2023-03-01T03:51:06;44.67;;;25.80;;
3627;SDS011;1830;49.000;12.074;2023-03-01T03:53:36;48.37;;;25.10;;
3627;SDS011;1830;49.000;12.074;2023-03-01T03:56:03;45.33;;;24.33;;
3627;SDS011;1830;49.000;12.074;2023-03-01T03:58:30;51.97;;;26.40;;
3627;SDS011;1830;49.000;12.074;2023-03-01T04:00:57;44.90;;;24.40;;
3627;SDS011;1830;49.000;12.074;2023-03-01T04:03:26;49.33;;;23.87;;
3627;SDS011;1830;49.000;12.074;2023-03-01T04:05:54;44.47;;;24.93;;
3627;SDS011;1830;49.000;12.074;2023-03-01T04:08:24;41.70;;;23.47;;
3627;SDS011;1830;49.000;12.074;2023-03-01T04:10:52;45.03;;;25.47;;
3627;SDS011;1830;49.000;12.074;2023-03-01T04:13:25;47.97;;;26.20;;
3627;SDS011;1830;49.000;12.074;2023-03-01T04:15:52;46.90;;;24.83;;
3627;SDS011;1830;49.000;12.074;2023-03-01T04:18:20;48.80;;;25.43;;
3627;SDS011;1830;49.000;12.074;2023-03-01T04:20:48;39.67;;;23.67;;
3627;SDS011;1830;49.000;12.074;2023-03-01T04:23:19;44.47;;;24.07;;
3627;SDS011;1830;49.000;12.074;2023-03-01T04:25:49;47.17;;;25.97;;
3627;SDS011;1830;49.000;12.074;2023-03-01T04:28:20;47.10;;;24.83;;
3627;SDS011;1830;49.000;12.074;2023-03-01T04:30:49;46.70;;;26.60;;
3627;SDS011;1830;49.000;12.074;2023-03-01T04:33:16;47.33;;;25.10;;
3627;SDS011;1830;49.000;12.074;2023-03-01T04:35:43;43.20;;;25.50;;
3627;SDS011;1830;49.000;12.074;2023-03-01T04:38:10;42.37;;;26.30;;
3627;SDS011;1830;49.000;12.074;2023-03-01T04:40:37;48.40;;;25.80;;
3627;SDS011;1830;49.000;12.074;2023-03-01T04:43:09;49.97;;;25.63;;
3627;SDS011;1830;49.000;12.074;2023-03-01T04:45:36;41.17;;;25.03;;
3627;SDS011;1830;49.000;12.074;2023-03-01T04:48:03;46.20;;;26.00;;
3627;SDS011;1830;49.000;12.074;2023-03-01T04:50:30;44.50;;;24.10;;
3627;SDS011;1830;49.000;12.074;2023-03-01T04:52:57;49.83;;;26.77;;
3627;SDS011;1830;49.000;12.074;2023-03-01T04:55:24;47.43;;;25.37;;
3627;SDS011;1830;49.000;12.074;2023-03-01T04:57:52;53.07;;;28.97;;
3627;SDS011;1830;49.000;12.074;2023-03-01T05:00:21;49.33;;;26.50;;
3627;SDS011;1830;49.000;12.074;2023-03-01T05:02:49;52.67;;;25.20;;
3627;SDS011;1830;49.000;12.074;2023-03-01T05:05:18;51.07;;;25.80;;
3627;SDS011;1830;49.000;12.074;2023-03-01T05:07:46;44.40;;;24.43;;
3627;SDS011;1830;49.000;12.074;2023-03-01T05:10:14;49.27;;;25.20;;
3627;SDS011;1830;49.000;12.074;2023-03-01T05:12:41;44.93;;;24.77;;
3627;SDS011;1830;49.000;12.074;2023-03-01T05:15:08;42.60;;;25.00;;
3627;SDS011;1830;49.000;12.074;2023-03-01T05:17:36;49.80;;;24.90;;
3627;SDS011;1830;49.000;12.074;2023-03-01T05:20:03;49.67;;;25.30;;
3627;SDS011;1830;49.000;12.074;2023-03-01T05:22:33;44.83;;;24.80;;
3627;SDS011;1830;49.000;12.074;2023-03-01T05:25:00;44.40;;;26.10;;
3627;SDS011;1830;49.000;12.074;2023-03-01T05:27:27;49.83;;;27.10;;
3627;SDS011;1830;49.000;12.074;2023-03-01T05:29:54;46.00;;;25.57;;
3627;SDS011;1830;49.000;12.074;2023-03-01T05:32:21;56.33;;;27.30;;
3627;SDS011;1830;49.000;12.074;2023-03-01T05:34:49;48.20;;;26.63;;
3627;SDS011;1830;49.000;12.074;2023-03-01T05:37:17;52.87;;;26.53;;
3627;SDS011;1830;49.000;12.074;2023-03-01T05:39:44;52.37;;;27.00;;
3627;SDS011;1830;49.000;12.074;2023-03-01T05:42:11;49.43;;;26.83;;
3627;SDS011;1830;49.000;12.074;2023-03-01T05:44:38;46.63;;;25.27;;
3627;SDS011;1830;49.000;12.074;2023-03-01T05:47:05;57.50;;;26.23;;
3627;SDS011;1830;49.000;12.074;2023-03-01T05:49:32;53.50;;;27.73;;
3627;SDS011;1830;49.000;12.074;2023-03-01T05:52:01;47.93;;;26.53;;
3627;SDS011;1830;49.000;12.074;2023-03-01T05:54:27;58.73;;;25.07;;
3627;SDS011;1830;49.000;12.074;2023-03-01T05:56:54;43.57;;;26.03;;
3627;SDS011;1830;49.000;12.074;2023-03-01T05:59:21;54.60;;;27.57;;
3627;SDS011;1830;49.000;12.074;2023-03-01T06:01:48;50.80;;;27.50;;
3627;SDS011;1830;49.000;12.074;2023-03-01T06:04:15;47.13;;;27.30;;
3627;SDS011;1830;49.000;12.074;2023-03-01T06:06:42;49.63;;;26.10;;
3627;SDS011;1830;49.000;12.074;2023-03-01T06:09:10;54.13;;;28.03;;
3627;SDS011;1830;49.000;12.074;2023-03-01T06:11:36;49.20;;;27.20;;
3627;SDS011;1830;49.000;12.074;2023-03-01T06:14:03;48.70;;;25.90;;
3627;SDS011;1830;49.000;12.074;2023-03-01T06:16:32;49.57;;;27.57;;
3627;SDS011;1830;49.000;12.074;2023-03-01T06:18:59;55.63;;;28.90;;
3627;SDS011;1830;49.000;12.074;2023-03-01T06:21:26;55.40;;;29.40;;
3627;SDS011;1830;49.000;12.074;2023-03-01T06:23:53;55.47;;;28.43;;
3627;SDS011;1830;49.000;12.074;2023-03-01T06:26:21;57.63;;;28.47;;
3627;SDS011;1830;49.000;12.074;2023-03-01T06:28:48;55.73;;;29.73;;
3627;SDS011;1830;49.000;12.074;2023-03-01T06:31:15;55.30;;;28.50;;
3627;SDS011;1830;49.000;12.074;2023-03-01T06:33:42;51.50;;;27.83;;
3627;SDS011;1830;49.000;12.074;2023-03-01T06:36:10;61.53;;;30.80;;
3627;SDS011;1830;49.000;12.074;2023-03-01T06:38:36;55.73;;;28.60;;
3627;SDS011;1830;49.000;12.074;2023-03-01T06:41:05;56.13;;;29.73;;
3627;SDS011;1830;49.000;12.074;2023-03-01T06:43:34;55.07;;;30.30;;
3627;SDS011;1830;49.000;12.074;2023-03-01T06:46:03;50.37;;;27.80;;
3627;SDS011;1830;49.000;12.074;2023-03-01T06:48:31;65.60;;;32.80;;
3627;SDS011;1830;49.000;12.074;2023-03-01T06:50:59;52.20;;;26.70;;
3627;SDS011;1830;49.000;12.074;2023-03-01T06:53:26;54.73;;;27.60;;
3627;SDS011;1830;49.000;12.074;2023-03-01T06:55:54;55.90;;;29.00;;
3627;SDS011;1830;49.000;12.074;2023-03-01T06:58:21;47.13;;;26.10;;
3627;SDS011;1830;49.000;12.074;2023-03-01T07:00:49;59.53;;;29.60;;
3627;SDS011;1830;49.000;12.074;2023-03-01T07:03:16;49.03;;;27.00;;
3627;SDS011;1830;49.000;12.074;2023-03-01T07:05:42;54.37;;;28.00;;
3627;SDS011;1830;49.000;12.074;2023-03-01T07:08:10;48.50;;;28.13;;
3627;SDS011;1830;49.000;12.074;2023-03-01T07:10:37;55.43;;;28.70;;
3627;SDS011;1830;49.000;12.074;2023-03-01T07:13:04;63.17;;;29.37;;
3627;SDS011;1830;49.000;12.074;2023-03-01T07:15:32;51.60;;;28.33;;
3627;SDS011;1830;49.000;12.074;2023-03-01T07:18:00;54.03;;;28.90;;
3627;SDS011;1830;49.000;12.074;2023-03-01T07:20:27;54.20;;;27.13;;
3627;SDS011;1830;49.000;12.074;2023-03-01T07:22:54;58.67;;;29.40;;
3627;SDS011;1830;49.000;12.074;2023-03-01T07:25:23;50.80;;;28.03;;
3627;SDS011;1830;49.000;12.074;2023-03-01T07:27:50;51.27;;;27.97;;
3627;SDS011;1830;49.000;12.074;2023-03-01T07:30:19;57.60;;;29.67;;
3627;SDS011;1830;49.000;12.074;2023-03-01T07:32:48;57.30;;;29.53;;
3627;SDS011;1830;49.000;12.074;2023-03-01T07:35:16;47.77;;;27.30;;
3627;SDS011;1830;49.000;12.074;2023-03-01T07:37:43;51.80;;;29.77;;
3627;SDS011;1830;49.000;12.074;2023-03-01T07:40:10;53.00;;;28.60;;
3627;SDS011;1830;49.000;12.074;2023-03-01T07:42:38;51.87;;;30.07;;
3627;SDS011;1830;49.000;12.074;2023-03-01T07:45:05;52.90;;;29.23;;
3627;SDS011;1830;49.000;12.074;2023-03-01T07:47:33;52.40;;;28.10;;
3627;SDS011;1830;49.000;12.074;2023-03-01T07:49:59;48.00;;;27.63;;
3627;SDS011;1830;49.000;12.074;2023-03-01T07:52:30;55.00;;;28.03;;
3627;SDS011;1830;49.000;12.074;2023-03-01T07:54:56;50.13;;;29.37;;
3627;SDS011;1830;49.000;12.074;2023-03-01T07:57:23;53.23;;;26.43;;
3627;SDS011;1830;49.000;12.074;2023-03-01T07:59:50;50.00;;;28.30;;
3627;SDS011;1830;49.000;12.074;2023-03-01T08:02:17;54.43;;;29.40;;
3627;SDS011;1830;49.000;12.074;2023-03-01T08:04:44;57.60;;;28.53;;
3627;SDS011;1830;49.000;12.074;2023-03-01T08:07:10;57.17;;;28.17;;
3627;SDS011;1830;49.000;12.074;2023-03-01T08:09:38;56.50;;;27.73;;
3627;SDS011;1830;49.000;12.074;2023-03-01T08:12:05;50.90;;;28.27;;
3627;SDS011;1830;49.000;12.074;2023-03-01T08:14:32;55.83;;;30.47;;
3627;SDS011;1830;49.000;12.074;2023-03-01T08:16:59;50.83;;;28.97;;
3627;SDS011;1830;49.000;12.074;2023-03-01T08:19:28;52.47;;;28.00;;
3627;SDS011;1830;49.000;12.074;2023-03-01T08:21:55;50.03;;;27.03;;
3627;SDS011;1830;49.000;12.074;2023-03-01T08:24:23;54.63;;;28.03;;
3627;SDS011;1830;49.000;12.074;2023-03-01T08:26:51;57.83;;;29.40;;
3627;SDS011;1830;49.000;12.074;2023-03-01T08:29:18;58.87;;;27.17;;
3627;SDS011;1830;49.000;12.074;2023-03-01T08:31:46;48.87;;;27.30;;
3627;SDS011;1830;49.000;12.074;2023-03-01T08:34:15;54.80;;;28.17;;
3627;SDS011;1830;49.000;12.074;2023-03-01T08:36:43;49.77;;;28.27;;
3627;SDS011;1830;49.000;12.074;2023-03-01T08:39:12;46.70;;;27.57;;
3627;SDS011;1830;49.000;12.074;2023-03-01T08:41:40;59.13;;;29.47;;
3627;SDS011;1830;49.000;12.074;2023-03-01T08:44:09;50.17;;;27.90;;
3627;SDS011;1830;49.000;12.074;2023-03-01T08:46:38;48.73;;;28.97;;
3627;SDS011;1830;49.000;12.074;2023-03-01T08:49:06;47.30;;;27.63;;
3627;SDS011;1830;49.000;12.074;2023-03-01T08:51:34;54.03;;;30.03;;
3627;SDS011;1830;49.000;12.074;2023-03-01T08:54:02;50.60;;;27.87;;
3627;SDS011;1830;49.000;12.074;2023-03-01T08:56:29;55.33;;;29.50;;
3627;SDS011;1830;49.000;12.074;2023-03-01T08:58:57;58.33;;;29.23;;
3627;SDS011;1830;49.000;12.074;2023-03-01T09:01:25;46.50;;;26.70;;
3627;SDS011;1830;49.000;12.074;2023-03-01T09:03:51;51.80;;;28.03;;
3627;SDS011;1830;49.000;12.074;2023-03-01T09:06:18;52.40;;;30.07;;
3627;SDS011;1830;49.000;12.074;2023-03-01T09:08:46;53.63;;;27.07;;
3627;SDS011;1830;49.000;12.074;2023-03-01T09:11:15;48.43;;;27.17;;
3627;SDS011;1830;49.000;12.074;2023-03-01T09:13:44;51.20;;;28.20;;
3627;SDS011;1830;49.000;12.074;2023-03-01T09:16:16;49.40;;;27.50;;
3627;SDS011;1830;49.000;12.074;2023-03-01T09:18:48;53.63;;;27.17;;
3627;SDS011;1830;49.000;12.074;2023-03-01T09:21:15;51.07;;;25.97;;
3627;SDS011;1830;49.000;12.074;2023-03-01T09:23:44;50.53;;;27.30;;
3627;SDS011;1830;49.000;12.074;2023-03-01T09:26:12;51.10;;;25.93;;
3627;SDS011;1830;49.000;12.074;2023-03-01T09:28:41;48.33;;;25.80;;
3627;SDS011;1830;49.000;12.074;2023-03-01T09:31:09;46.33;;;27.80;;
3627;SDS011;1830;49.000;12.074;2023-03-01T09:33:38;42.33;;;25.40;;
3627;SDS011;1830;49.000;12.074;2023-03-01T09:36:09;49.63;;;25.57;;
3627;SDS011;1830;49.000;12.074;2023-03-01T09:38:38;45.63;;;25.13;;
3627;SDS011;1830;49.000;12.074;2023-03-01T09:41:09;47.60;;;26.20;;
3627;SDS011;1830;49.000;12.074;2023-03-01T09:43:46;48.53;;;26.33;;
3627;SDS011;1830;49.000;12.074;2023-03-01T09:46:19;41.30;;;25.30;;
3627;SDS011;1830;49.000;12.074;2023-03-01T09:48:48;51.73;;;24.60;;
3627;SDS011;1830;49.000;12.074;2023-03-01T09:51:22;42.37;;;24.77;;
3627;SDS011;1830;49.000;12.074;2023-03-01T09:53:55;40.57;;;23.30;;
3627;SDS011;1830;49.000;12.074;2023-03-01T09:56:27;38.97;;;23.50;;
3627;SDS011;1830;49.000;12.074;2023-03-01T09:59:02;48.00;;;25.37;;
3627;SDS011;1830;49.000;12.074;2023-03-01T10:01:40;46.27;;;25.00;;
3627;SDS011;1830;49.000;12.074;2023-03-01T10:04:27;37.50;;;23.10;;
3627;SDS011;1830;49.000;12.074;2023-03-01T10:07:05;39.60;;;23.50;;
3627;SDS011;1830;49.000;12.074;2023-03-01T10:09:43;38.50;;;23.70;;
3627;SDS011;1830;49.000;12.074;2023-03-01T10:12:12;48.13;;;25.97;;
3627;SDS011;1830;49.000;12.074;2023-03-01T10:14:44;48.83;;;25.93;;
3627;SDS011;1830;49.000;12.074;2023-03-01T10:17:20;47.03;;;23.53;;
3627;SDS011;1830;49.000;12.074;2023-03-01T10:19:53;45.20;;;24.57;;
3627;SDS011;1830;49.000;12.074;2023-03-01T10:22:24;42.30;;;25.90;;
3627;SDS011;1830;49.000;12.074;2023-03-01T10:24:54;48.67;;;25.10;;
3627;SDS011;1830;49.000;12.074;2023-03-01T10:27:24;43.80;;;24.87;;
3627;SDS011;1830;49.000;12.074;2023-03-01T10:29:54;40.70;;;24.43;;
3627;SDS011;1830;49.000;12.074;2023-03-01T10:32:27;42.10;;;22.03;;
3627;SDS011;1830;49.000;12.074;2023-03-01T10:34:55;49.40;;;21.83;;
3627;SDS011;1830;49.000;12.074;2023-03-01T10:37:23;41.27;;;23.07;;
3627;SDS011;1830;49.000;12.074;2023-03-01T10:39:56;43.33;;;21.70;;
3627;SDS011;1830;49.000;12.074;2023-03-01T10:42:25;40.27;;;22.83;;
3627;SDS011;1830;49.000;12.074;2023-03-01T10:44:55;41.20;;;24.10;;
3627;SDS011;1830;49.000;12.074;2023-03-01T10:47:22;36.50;;;20.77;;
3627;SDS011;1830;49.000;12.074;2023-03-01T10:49:55;35.03;;;21.50;;
3627;SDS011;1830;49.000;12.074;2023-03-01T10:52:31;39.07;;;22.90;;
3627;SDS011;1830;49.000;12.074;2023-03-01T10:55:01;44.97;;;25.30;;
3627;SDS011;1830;49.000;12.074;2023-03-01T10:57:31;45.53;;;23.40;;
3627;SDS011;1830;49.000;12.074;2023-03-01T11:00:14;40.87;;;24.30;;
3627;SDS011;1830;49.000;12.074;2023-03-01T11:03:03;39.60;;;23.60;;
3627;SDS011;1830;49.000;12.074;2023-03-01T11:05:44;48.60;;;25.27;;
3627;SDS011;1830;49.000;12.074;2023-03-01T11:08:42;40.43;;;23.20;;
3627;SDS011;1830;49.000;12.074;2023-03-01T11:11:14;40.50;;;24.43;;
3627;SDS011;1830;49.000;12.074;2023-03-01T11:13:57;45.70;;;24.77;;
3627;SDS011;1830;49.000;12.074;2023-03-01T11:16:27;40.83;;;24.90;;
3627;SDS011;1830;49.000;12.074;2023-03-01T11:18:58;37.10;;;22.80;;
3627;SDS011;1830;49.000;12.074;2023-03-01T11:21:30;42.00;;;24.30;;
3627;SDS011;1830;49.000;12.074;2023-03-01T11:24:01;40.00;;;23.07;;
3627;SDS011;1830;49.000;12.074;2023-03-01T11:26:30;42.50;;;24.40;;
3627;SDS011;1830;49.000;12.074;2023-03-01T11:29:04;40.17;;;23.37;;
3627;SDS011;1830;49.000;12.074;2023-03-01T11:31:37;41.40;;;24.87;;
3627;SDS011;1830;49.000;12.074;2023-03-01T11:34:07;43.87;;;24.23;;
3627;SDS011;1830;49.000;12.074;2023-03-01T11:36:42;38.63;;;24.37;;
3627;SDS011;1830;49.000;12.074;2023-03-01T11:39:17;44.40;;;25.00;;
3627;SDS011;1830;49.000;12.074;2023-03-01T11:41:52;38.60;;;23.20;;
3627;SDS011;1830;49.000;12.074;2023-03-01T11:44:28;38.13;;;24.03;;
3627;SDS011;1830;49.000;12.074;2023-03-01T11:47:15;44.03;;;25.47;;
3627;SDS011;1830;49.000;12.074;2023-03-01T11:50:07;43.70;;;25.00;;
3627;SDS011;1830;49.000;12.074;2023-03-01T11:52:44;45.43;;;25.03;;
3627;SDS011;1830;49.000;12.074;2023-03-01T11:55:29;43.43;;;26.87;;
3627;SDS011;1830;49.000;12.074;2023-03-01T11:58:23;40.77;;;24.30;;
3627;SDS011;1830;49.000;12.074;2023-03-01T12:01:07;43.43;;;25.50;;
3627;SDS011;1830;49.000;12.074;2023-03-01T12:03:47;50.80;;;27.33;;
3627;SDS011;1830;49.000;12.074;2023-03-01T12:06:41;44.33;;;25.47;;
3627;SDS011;1830;49.000;12.074;2023-03-01T12:09:19;47.57;;;26.17;;
3627;SDS011;1830;49.000;12.074;2023-03-01T12:12:16;42.07;;;23.80;;
3627;SDS011;1830;49.000;12.074;2023-03-01T12:15:08;44.70;;;21.17;;
3627;SDS011;1830;49.000;12.074;2023-03-01T12:18:00;40.83;;;22.70;;
3627;SDS011;1830;49.000;12.074;2023-03-01T12:20:40;39.17;;;24.10;;
3627;SDS011;1830;49.000;12.074;2023-03-01T12:23:21;37.73;;;23.30;;
3627;SDS011;1830;49.000;12.074;2023-03-01T12:25:58;37.07;;;22.70;;
3627;SDS011;1830;49.000;12.074;2023-03-01T12:28:40;44.43;;;24.67;;
3627;SDS011;1830;49.000;12.074;2023-03-01T12:31:30;40.77;;;25.17;;
3627;SDS011;1830;49.000;12.074;2023-03-01T12:34:16;41.23;;;24.13;;
3627;SDS011;1830;49.000;12.074;2023-03-01T12:37:10;44.27;;;25.50;;
3627;SDS011;1830;49.000;12.074;2023-03-01T12:39:47;42.27;;;25.87;;
3627;SDS011;1830;49.000;12.074;2023-03-01T12:42:22;46.07;;;25.20;;
3627;SDS011;1830;49.000;12.074;2023-03-01T12:45:02;42.83;;;24.63;;
3627;SDS011;1830;49.000;12.074;2023-03-01T12:47:55;38.23;;;22.73;;
3627;SDS011;1830;49.000;12.074;2023-03-01T12:50:36;37.93;;;22.97;;
3627;SDS011;1830;49.000;12.074;2023-03-01T12:53:07;40.97;;;23.20;;
3627;SDS011;1830;49.000;12.074;2023-03-01T12:55:45;38.60;;;22.90;;
3627;SDS011;1830;49.000;12.074;2023-03-01T12:58:16;37.10;;;23.27;;
3627;SDS011;1830;49.000;12.074;2023-03-01T13:00:54;43.80;;;23.47;;
3627;SDS011;1830;49.000;12.074;2023-03-01T13:03:31;32.70;;;21.63;;
3627;SDS011;1830;49.000;12.074;2023-03-01T13:06:15;35.97;;;23.63;;
3627;SDS011;1830;49.000;12.074;2023-03-01T13:08:47;41.00;;;23.00;;
3627;SDS011;1830;49.000;12.074;2023-03-01T13:11:21;42.93;;;22.80;;
3627;SDS011;1830;49.000;12.074;2023-03-01T13:13:49;36.50;;;22.27;;
3627;SDS011;1830;49.000;12.074;2023-03-01T13:16:21;37.93;;;21.40;;
3627;SDS011;1830;49.000;12.074;2023-03-01T13:19:12;43.07;;;25.00;;
3627;SDS011;1830;49.000;12.074;2023-03-01T13:21:41;36.77;;;22.67;;
3627;SDS011;1830;49.000;12.074;2023-03-01T13:24:23;32.50;;;22.00;;
3627;SDS011;1830;49.000;12.074;2023-03-01T13:29:54;43.77;;;23.70;;
3627;SDS011;1830;49.000;12.074;2023-03-01T13:32:26;44.67;;;24.30;;
3627;SDS011;1830;49.000;12.074;2023-03-01T13:34:58;39.30;;;24.47;;
3627;SDS011;1830;49.000;12.074;2023-03-01T13:37:29;40.60;;;23.97;;
3627;SDS011;1830;49.000;12.074;2023-03-01T13:39:59;39.10;;;23.07;;
3627;SDS011;1830;49.000;12.074;2023-03-01T13:45:18;35.80;;;23.87;;
3627;SDS011;1830;49.000;12.074;2023-03-01T13:47:49;42.50;;;25.07;;
3627;SDS011;1830;49.000;12.074;2023-03-01T13:50:23;36.43;;;23.37;;
3627;SDS011;1830;49.000;12.074;2023-03-01T13:52:52;43.13;;;23.67;;
3627;SDS011;1830;49.000;12.074;2023-03-01T13:55:24;39.90;;;24.27;;
3627;SDS011;1830;49.000;12.074;2023-03-01T13:57:56;42.03;;;25.93;;
3627;SDS011;1830;49.000;12.074;2023-03-01T14:00:30;42.20;;;25.20;;
3627;SDS011;1830;49.000;12.074;2023-03-01T14:03:05;46.10;;;25.13;;
3627;SDS011;1830;49.000;12.074;2023-03-01T14:05:37;39.53;;;24.97;;
3627;SDS011;1830;49.000;12.074;2023-03-01T14:08:05;39.00;;;24.33;;
3627;SDS011;1830;49.000;12.074;2023-03-01T14:10:48;40.47;;;25.30;;
3627;SDS011;1830;49.000;12.074;2023-03-01T14:13:25;36.40;;;24.93;;
3627;SDS011;1830;49.000;12.074;2023-03-01T14:16:07;39.40;;;24.30;;
3627;SDS011;1830;49.000;12.074;2023-03-01T14:18:43;41.83;;;24.57;;
3627;SDS011;1830;49.000;12.074;2023-03-01T14:21:14;37.07;;;23.30;;
3627;SDS011;1830;49.000;12.074;2023-03-01T14:23:42;38.20;;;24.03;;
3627;SDS011;1830;49.000;12.074;2023-03-01T14:26:11;43.73;;;25.30;;
3627;SDS011;1830;49.000;12.074;2023-03-01T14:28:38;43.50;;;24.93;;
3627;SDS011;1830;49.000;12.074;2023-03-01T14:34:16;39.87;;;25.10;;
3627;SDS011;1830;49.000;12.074;2023-03-01T14:36:45;40.20;;;23.17;;
3627;SDS011;1830;49.000;12.074;2023-03-01T14:39:16;33.93;;;23.40;;
3627;SDS011;1830;49.000;12.074;2023-03-01T14:41:44;44.97;;;25.57;;
3627;SDS011;1830;49.000;12.074;2023-03-01T14:44:12;37.90;;;25.10;;
3627;SDS011;1830;49.000;12.074;2023-03-01T14:46:45;33.33;;;23.30;;
3627;SDS011;1830;49.000;12.074;2023-03-01T14:49:14;41.50;;;24.73;;
3627;SDS011;1830;49.000;12.074;2023-03-01T14:51:45;38.83;;;23.27;;
3627;SDS011;1830;49.000;12.074;2023-03-01T14:54:19;42.53;;;22.60;;
3627;SDS011;1830;49.000;12.074;2023-03-01T14:56:48;35.67;;;22.33;;
3627;SDS011;1830;49.000;12.074;2023-03-01T14:59:18;38.20;;;24.23;;
3627;SDS011;1830;49.000;12.074;2023-03-01T15:01:47;38.20;;;24.00;;